PWSweather.com
Personal Weather Stations
Station Observations
KMIEASTT1
Tawas Bay, East Tawas, MI 48730

Tawas BayEast Tawas, MI 48730

Lat: 44.28, Lon: -83.48

Elevation: 600

Station Type: Davis VantagePro

http://www.tawasbayweather.com

High Low Average
Temperature 32.6°F0.3°C 19.3°F-7.1°C 25.0°F-3.9°C
Dew Point 18.8°F-7.3°C 12.1°F-11.1°C 15.3°F-9.3°C
Winds 13.0 mph 20.9 kmh 2.0 mph 3.2 kmh 7.0 mph WNW11.3 kmh WNW
Wind Gusts 25.0 mph40.2 kmh 5.0 mph8.0 kmh 12.0 mph19.3 kmh
Humidity 81% 47% 67%
Pressure 30.14 in1020.7 mb 30.05 in1017.6 mb -
Precipitation 0.00 in0.0 mm - -
Hour Temp Dew Point Humidity Winds Wind Gusts Pressure Precip Precip Rate Daily Precip Total
12:02 AM 19.3°F-7.1°C 12.1°F-11.1°C 73% 7.0 mph NW11.3 kmh NW 11.0 mph17.7 kmh 30.14 in1020.7 mb 0.00 in0.0 mm 0.00 in/hr0.0 mm/hr 0.00 in0.0 mm
12:17 AM 19.4°F-7.0°C 12.5°F-10.8°C 74% 4.0 mph W6.4 kmh W 9.0 mph14.5 kmh 30.14 in1020.7 mb 0.00 in0.0 mm 0.00 in/hr0.0 mm/hr 0.00 in0.0 mm
12:30 AM 19.5°F-6.9°C 12.3°F-10.9°C 73% 6.0 mph WSW9.7 kmh WSW 10.0 mph16.1 kmh 30.14 in1020.7 mb 0.00 in0.0 mm 0.00 in/hr0.0 mm/hr 0.00 in0.0 mm
12:45 AM 19.6°F-6.9°C 12.4°F-10.9°C 73% 11.0 mph NW17.7 kmh NW 11.0 mph17.7 kmh 30.13 in1020.3 mb 0.00 in0.0 mm 0.00 in/hr0.0 mm/hr 0.00 in0.0 mm
01:02 AM 19.8°F-6.8°C 12.6°F-10.8°C 73% 5.0 mph NW8.0 kmh NW 12.0 mph19.3 kmh 30.13 in1020.3 mb 0.00 in0.0 mm 0.00 in/hr0.0 mm/hr 0.00 in0.0 mm
01:15 AM 19.9°F-6.7°C 12.7°F-10.7°C 73% 8.0 mph WNW12.9 kmh WNW 13.0 mph20.9 kmh 30.12 in1020.0 mb 0.00 in0.0 mm 0.00 in/hr0.0 mm/hr 0.00 in0.0 mm
01:30 AM 20.0°F-6.7°C 13.1°F-10.5°C 74% 8.0 mph W12.9 kmh W 14.0 mph22.5 kmh 30.11 in1019.6 mb 0.00 in0.0 mm 0.00 in/hr0.0 mm/hr 0.00 in0.0 mm
01:45 AM 20.1°F-6.6°C 13.2°F-10.4°C 74% 5.0 mph WSW8.0 kmh WSW 13.0 mph20.9 kmh 30.11 in1019.6 mb 0.00 in0.0 mm 0.00 in/hr0.0 mm/hr 0.00 in0.0 mm
02:01 AM 20.2°F-6.6°C 13.6°F-10.2°C 75% 6.0 mph WNW9.7 kmh WNW 12.0 mph19.3 kmh 30.11 in1019.6 mb 0.00 in0.0 mm 0.00 in/hr0.0 mm/hr 0.00 in0.0 mm
02:16 AM 20.2°F-6.6°C 13.6°F-10.2°C 75% 8.0 mph WSW12.9 kmh WSW 12.0 mph19.3 kmh 30.10 in1019.3 mb 0.00 in0.0 mm 0.00 in/hr0.0 mm/hr 0.00 in0.0 mm
02:31 AM 20.1°F-6.6°C 13.8°F-10.1°C 76% 7.0 mph W11.3 kmh W 10.0 mph16.1 kmh 30.10 in1019.3 mb 0.00 in0.0 mm 0.00 in/hr0.0 mm/hr 0.00 in0.0 mm
02:45 AM 20.1°F-6.6°C 13.8°F-10.1°C 76% 10.0 mph WNW16.1 kmh WNW 11.0 mph17.7 kmh 30.10 in1019.3 mb 0.00 in0.0 mm 0.00 in/hr0.0 mm/hr 0.00 in0.0 mm
03:02 AM 20.2°F-6.6°C 14.2°F-9.9°C 77% 5.0 mph NW8.0 kmh NW 12.0 mph19.3 kmh 30.09 in1019.0 mb 0.00 in0.0 mm 0.00 in/hr0.0 mm/hr 0.00 in0.0 mm
03:16 AM 20.4°F-6.4°C 14.7°F-9.6°C 78% 4.0 mph WSW6.4 kmh WSW 11.0 mph17.7 kmh 30.09 in1019.0 mb 0.00 in0.0 mm 0.00 in/hr0.0 mm/hr 0.00 in0.0 mm
03:31 AM 20.6°F-6.3°C 14.8°F-9.6°C 78% 8.0 mph W12.9 kmh W 9.0 mph14.5 kmh 30.09 in1019.0 mb 0.00 in0.0 mm 0.00 in/hr0.0 mm/hr 0.00 in0.0 mm
03:46 AM 20.8°F-6.2°C 15.0°F-9.4°C 78% 7.0 mph WSW11.3 kmh WSW 9.0 mph14.5 kmh 30.09 in1019.0 mb 0.00 in0.0 mm 0.00 in/hr0.0 mm/hr 0.00 in0.0 mm
04:01 AM 20.9°F-6.2°C 15.4°F-9.2°C 79% 7.0 mph WNW11.3 kmh WNW 12.0 mph19.3 kmh 30.08 in1018.6 mb 0.00 in0.0 mm 0.00 in/hr0.0 mm/hr 0.00 in0.0 mm
04:16 AM 20.9°F-6.2°C 15.1°F-9.4°C 78% 5.0 mph NW8.0 kmh NW 9.0 mph14.5 kmh 30.08 in1018.6 mb 0.00 in0.0 mm 0.00 in/hr0.0 mm/hr 0.00 in0.0 mm
04:30 AM 21.0°F-6.1°C 15.5°F-9.2°C 79% 5.0 mph WSW8.0 kmh WSW 9.0 mph14.5 kmh 30.09 in1019.0 mb 0.00 in0.0 mm 0.00 in/hr0.0 mm/hr 0.00 in0.0 mm
04:45 AM 21.1°F-6.1°C 15.6°F-9.1°C 79% 2.0 mph WNW3.2 kmh WNW 10.0 mph16.1 kmh 30.09 in1019.0 mb 0.00 in0.0 mm 0.00 in/hr0.0 mm/hr 0.00 in0.0 mm
05:01 AM 21.1°F-6.1°C 15.6°F-9.1°C 79% 3.0 mph W4.8 kmh W 10.0 mph16.1 kmh 30.09 in1019.0 mb 0.00 in0.0 mm 0.00 in/hr0.0 mm/hr 0.00 in0.0 mm
05:15 AM 21.2°F-6.0°C 15.7°F-9.1°C 79% 3.0 mph W4.8 kmh W 7.0 mph11.3 kmh 30.09 in1019.0 mb 0.00 in0.0 mm 0.00 in/hr0.0 mm/hr 0.00 in0.0 mm
05:31 AM 21.1°F-6.1°C 15.6°F-9.1°C 79% 3.0 mph W4.8 kmh W 6.0 mph9.7 kmh 30.09 in1019.0 mb 0.00 in0.0 mm 0.00 in/hr0.0 mm/hr 0.00 in0.0 mm
05:46 AM 21.0°F-6.1°C 15.8°F-9.0°C 80% 3.0 mph NW4.8 kmh NW 8.0 mph12.9 kmh 30.09 in1019.0 mb 0.00 in0.0 mm 0.00 in/hr0.0 mm/hr 0.00 in0.0 mm
06:01 AM 21.2°F-6.0°C 16.3°F-8.7°C 81% 5.0 mph W8.0 kmh W 6.0 mph9.7 kmh 30.10 in1019.3 mb 0.00 in0.0 mm 0.00 in/hr0.0 mm/hr 0.00 in0.0 mm
06:15 AM 21.6°F-5.8°C 16.4°F-8.7°C 80% 5.0 mph WSW8.0 kmh WSW 12.0 mph19.3 kmh 30.10 in1019.3 mb 0.00 in0.0 mm 0.00 in/hr0.0 mm/hr 0.00 in0.0 mm
06:31 AM 21.9°F-5.6°C 16.1°F-8.8°C 78% 5.0 mph NW8.0 kmh NW 8.0 mph12.9 kmh 30.10 in1019.3 mb 0.00 in0.0 mm 0.00 in/hr0.0 mm/hr 0.00 in0.0 mm
06:46 AM 22.9°F-5.1°C 15.2°F-9.3°C 72% 13.0 mph WNW20.9 kmh WNW 13.0 mph20.9 kmh 30.09 in1019.0 mb 0.00 in0.0 mm 0.00 in/hr0.0 mm/hr 0.00 in0.0 mm
07:01 AM 23.4°F-4.8°C 14.4°F-9.8°C 68% 4.0 mph NW6.4 kmh NW 13.0 mph20.9 kmh 30.08 in1018.6 mb 0.00 in0.0 mm 0.00 in/hr0.0 mm/hr 0.00 in0.0 mm
07:15 AM 23.4°F-4.8°C 14.1°F-9.9°C 67% 7.0 mph WNW11.3 kmh WNW 11.0 mph17.7 kmh 30.08 in1018.6 mb 0.00 in0.0 mm 0.00 in/hr0.0 mm/hr 0.00 in0.0 mm
07:31 AM 23.2°F-4.9°C 15.5°F-9.2°C 72% 3.0 mph NW4.8 kmh NW 9.0 mph14.5 kmh 30.08 in1018.6 mb 0.00 in0.0 mm 0.00 in/hr0.0 mm/hr 0.00 in0.0 mm
07:46 AM 22.9°F-5.1°C 16.5°F-8.6°C 76% 4.0 mph NW6.4 kmh NW 8.0 mph12.9 kmh 30.09 in1019.0 mb 0.00 in0.0 mm 0.00 in/hr0.0 mm/hr 0.00 in0.0 mm
08:02 AM 22.8°F-5.1°C 16.7°F-8.5°C 77% 3.0 mph NW4.8 kmh NW 6.0 mph9.7 kmh 30.10 in1019.3 mb 0.00 in0.0 mm 0.00 in/hr0.0 mm/hr 0.00 in0.0 mm
08:16 AM 22.9°F-5.1°C 16.8°F-8.4°C 77% 3.0 mph NW4.8 kmh NW 5.0 mph8.0 kmh 30.10 in1019.3 mb 0.00 in0.0 mm 0.00 in/hr0.0 mm/hr 0.00 in0.0 mm
08:30 AM 23.1°F-4.9°C 16.4°F-8.7°C 75% 3.0 mph NW4.8 kmh NW 7.0 mph11.3 kmh 30.11 in1019.6 mb 0.00 in0.0 mm 0.00 in/hr0.0 mm/hr 0.00 in0.0 mm
08:46 AM 23.3°F-4.8°C 16.3°F-8.7°C 74% 6.0 mph NW9.7 kmh NW 9.0 mph14.5 kmh 30.11 in1019.6 mb 0.00 in0.0 mm 0.00 in/hr0.0 mm/hr 0.00 in0.0 mm
09:02 AM 23.6°F-4.7°C 15.6°F-9.1°C 71% 3.0 mph NNW4.8 kmh NNW 9.0 mph14.5 kmh 30.11 in1019.6 mb 0.00 in0.0 mm 0.00 in/hr0.0 mm/hr 0.00 in0.0 mm
09:16 AM 23.8°F-4.6°C 15.1°F-9.4°C 69% 3.0 mph NNW4.8 kmh NNW 11.0 mph17.7 kmh 30.11 in1019.6 mb 0.00 in0.0 mm 0.00 in/hr0.0 mm/hr 0.00 in0.0 mm
09:30 AM 24.0°F-4.4°C 14.7°F-9.6°C 67% 9.0 mph NW14.5 kmh NW 17.0 mph27.4 kmh 30.12 in1020.0 mb 0.00 in0.0 mm 0.00 in/hr0.0 mm/hr 0.00 in0.0 mm
09:45 AM 24.2°F-4.3°C 14.5°F-9.7°C 66% 4.0 mph NW6.4 kmh NW 12.0 mph19.3 kmh 30.12 in1020.0 mb 0.00 in0.0 mm 0.00 in/hr0.0 mm/hr 0.00 in0.0 mm
10:02 AM 24.2°F-4.3°C 14.8°F-9.6°C 67% 7.0 mph WNW11.3 kmh WNW 12.0 mph19.3 kmh 30.12 in1020.0 mb 0.00 in0.0 mm 0.00 in/hr0.0 mm/hr 0.00 in0.0 mm
10:16 AM 24.4°F-4.2°C 14.0°F-10.0°C 64% 8.0 mph NW12.9 kmh NW 16.0 mph25.7 kmh 30.12 in1020.0 mb 0.00 in0.0 mm 0.00 in/hr0.0 mm/hr 0.00 in0.0 mm
10:31 AM 24.7°F-4.1°C 13.9°F-10.1°C 63% 4.0 mph NNW6.4 kmh NNW 15.0 mph24.1 kmh 30.12 in1020.0 mb 0.00 in0.0 mm 0.00 in/hr0.0 mm/hr 0.00 in0.0 mm
10:46 AM 24.6°F-4.1°C 13.1°F-10.5°C 61% 10.0 mph NW16.1 kmh NW 18.0 mph29.0 kmh 30.13 in1020.3 mb 0.00 in0.0 mm 0.00 in/hr0.0 mm/hr 0.00 in0.0 mm
11:02 AM 25.5°F-3.6°C 14.3°F-9.8°C 62% 8.0 mph NNW12.9 kmh NNW 13.0 mph20.9 kmh 30.12 in1020.0 mb 0.00 in0.0 mm 0.00 in/hr0.0 mm/hr 0.00 in0.0 mm
11:15 AM 25.6°F-3.6°C 14.8°F-9.6°C 63% 6.0 mph NW9.7 kmh NW 14.0 mph22.5 kmh 30.12 in1020.0 mb 0.00 in0.0 mm 0.00 in/hr0.0 mm/hr 0.00 in0.0 mm
11:31 AM 25.5°F-3.6°C 15.4°F-9.2°C 65% 5.0 mph NW8.0 kmh NW 13.0 mph20.9 kmh 30.12 in1020.0 mb 0.00 in0.0 mm 0.00 in/hr0.0 mm/hr 0.00 in0.0 mm
11:46 AM 25.7°F-3.5°C 15.2°F-9.3°C 64% 11.0 mph W17.7 kmh W 16.0 mph25.7 kmh 30.12 in1020.0 mb 0.00 in0.0 mm 0.00 in/hr0.0 mm/hr 0.00 in0.0 mm
12:02 PM 26.3°F-3.2°C 14.7°F-9.6°C 61% 8.0 mph NNW12.9 kmh NNW 12.0 mph19.3 kmh 30.11 in1019.6 mb 0.00 in0.0 mm 0.00 in/hr0.0 mm/hr 0.00 in0.0 mm
12:15 PM 26.5°F-3.1°C 14.5°F-9.7°C 60% 11.0 mph NW17.7 kmh NW 13.0 mph20.9 kmh 30.11 in1019.6 mb 0.00 in0.0 mm 0.00 in/hr0.0 mm/hr 0.00 in0.0 mm
12:31 PM 28.1°F-2.2°C 15.6°F-9.1°C 59% 5.0 mph W8.0 kmh W 8.0 mph12.9 kmh 30.10 in1019.3 mb 0.00 in0.0 mm 0.00 in/hr0.0 mm/hr 0.00 in0.0 mm
12:46 PM 28.0°F-2.2°C 15.9°F-8.9°C 60% 11.0 mph WNW17.7 kmh WNW 15.0 mph24.1 kmh 30.10 in1019.3 mb 0.00 in0.0 mm 0.00 in/hr0.0 mm/hr 0.00 in0.0 mm
01:02 PM 29.2°F-1.6°C 16.7°F-8.5°C 59% 10.0 mph NW16.1 kmh NW 19.0 mph30.6 kmh 30.09 in1019.0 mb 0.00 in0.0 mm 0.00 in/hr0.0 mm/hr 0.00 in0.0 mm
01:16 PM 28.6°F-1.9°C 17.6°F-8.0°C 63% 10.0 mph WSW16.1 kmh WSW 18.0 mph29.0 kmh 30.09 in1019.0 mb 0.00 in0.0 mm 0.00 in/hr0.0 mm/hr 0.00 in0.0 mm
01:30 PM 29.4°F-1.4°C 17.6°F-8.0°C 61% 11.0 mph WNW17.7 kmh WNW 15.0 mph24.1 kmh 30.08 in1018.6 mb 0.00 in0.0 mm 0.00 in/hr0.0 mm/hr 0.00 in0.0 mm
01:46 PM 28.9°F-1.7°C 18.3°F-7.6°C 64% 10.0 mph WSW16.1 kmh WSW 17.0 mph27.4 kmh 30.07 in1018.3 mb 0.00 in0.0 mm 0.00 in/hr0.0 mm/hr 0.00 in0.0 mm
02:02 PM 28.7°F-1.8°C 18.4°F-7.6°C 65% 12.0 mph W19.3 kmh W 19.0 mph30.6 kmh 30.07 in1018.3 mb 0.00 in0.0 mm 0.00 in/hr0.0 mm/hr 0.00 in0.0 mm
02:16 PM 29.1°F-1.6°C 18.8°F-7.3°C 65% 8.0 mph WSW12.9 kmh WSW 25.0 mph40.2 kmh 30.07 in1018.3 mb 0.00 in0.0 mm 0.00 in/hr0.0 mm/hr 0.00 in0.0 mm
02:31 PM 30.2°F-1.0°C 18.4°F-7.6°C 61% 12.0 mph WNW19.3 kmh WNW 18.0 mph29.0 kmh 30.06 in1017.9 mb 0.00 in0.0 mm 0.00 in/hr0.0 mm/hr 0.00 in0.0 mm
02:46 PM 30.7°F-0.7°C 18.1°F-7.7°C 59% 10.0 mph NW16.1 kmh NW 20.0 mph32.2 kmh 30.06 in1017.9 mb 0.00 in0.0 mm 0.00 in/hr0.0 mm/hr 0.00 in0.0 mm
03:02 PM 30.0°F-1.1°C 17.8°F-7.9°C 60% 12.0 mph NW19.3 kmh NW 17.0 mph27.4 kmh 30.06 in1017.9 mb 0.00 in0.0 mm 0.00 in/hr0.0 mm/hr 0.00 in0.0 mm
03:16 PM 30.8°F-0.7°C 17.8°F-7.9°C 58% 6.0 mph W9.7 kmh W 16.0 mph25.7 kmh 30.06 in1017.9 mb 0.00 in0.0 mm 0.00 in/hr0.0 mm/hr 0.00 in0.0 mm
03:31 PM 31.5°F-0.3°C 18.4°F-7.6°C 58% 4.0 mph WNW6.4 kmh WNW 15.0 mph24.1 kmh 30.06 in1017.9 mb 0.00 in0.0 mm 0.00 in/hr0.0 mm/hr 0.00 in0.0 mm
03:46 PM 31.4°F-0.3°C 17.5°F-8.1°C 56% 5.0 mph NW8.0 kmh NW 14.0 mph22.5 kmh 30.06 in1017.9 mb 0.00 in0.0 mm 0.00 in/hr0.0 mm/hr 0.00 in0.0 mm
04:01 PM 31.9°F-0.1°C 16.3°F-8.7°C 52% 8.0 mph W12.9 kmh W 16.0 mph25.7 kmh 30.06 in1017.9 mb 0.00 in0.0 mm 0.00 in/hr0.0 mm/hr 0.00 in0.0 mm
04:16 PM 31.8°F-0.1°C 16.2°F-8.8°C 52% 8.0 mph NW12.9 kmh NW 15.0 mph24.1 kmh 30.06 in1017.9 mb 0.00 in0.0 mm 0.00 in/hr0.0 mm/hr 0.00 in0.0 mm
04:32 PM 31.9°F-0.1°C 15.4°F-9.2°C 50% 7.0 mph NW11.3 kmh NW 13.0 mph20.9 kmh 30.06 in1017.9 mb 0.00 in0.0 mm 0.00 in/hr0.0 mm/hr 0.00 in0.0 mm
04:46 PM 32.6°F0.3°C 15.1°F-9.4°C 48% 8.0 mph WSW12.9 kmh WSW 12.0 mph19.3 kmh 30.06 in1017.9 mb 0.00 in0.0 mm 0.00 in/hr0.0 mm/hr 0.00 in0.0 mm
05:02 PM 32.6°F0.3°C 15.6°F-9.1°C 49% 8.0 mph NW12.9 kmh NW 14.0 mph22.5 kmh 30.05 in1017.6 mb 0.00 in0.0 mm 0.00 in/hr0.0 mm/hr 0.00 in0.0 mm
05:16 PM 32.5°F0.3°C 14.5°F-9.7°C 47% 4.0 mph NW6.4 kmh NW 9.0 mph14.5 kmh 30.05 in1017.6 mb 0.00 in0.0 mm 0.00 in/hr0.0 mm/hr 0.00 in0.0 mm
05:30 PM 32.3°F0.2°C 15.3°F-9.3°C 49% 8.0 mph W12.9 kmh W 11.0 mph17.7 kmh 30.05 in1017.6 mb 0.00 in0.0 mm 0.00 in/hr0.0 mm/hr 0.00 in0.0 mm
05:47 PM 31.5°F-0.3°C 15.5°F-9.2°C 51% 2.0 mph WNW3.2 kmh WNW 9.0 mph14.5 kmh 30.05 in1017.6 mb 0.00 in0.0 mm 0.00 in/hr0.0 mm/hr 0.00 in0.0 mm
06:02 PM 30.6°F-0.8°C 14.2°F-9.9°C 50% 6.0 mph W9.7 kmh W 10.0 mph16.1 kmh 30.05 in1017.6 mb 0.00 in0.0 mm 0.00 in/hr0.0 mm/hr 0.00 in0.0 mm
06:16 PM 30.2°F-1.0°C 13.8°F-10.1°C 50% 4.0 mph NW6.4 kmh NW 6.0 mph9.7 kmh 30.05 in1017.6 mb 0.00 in0.0 mm 0.00 in/hr0.0 mm/hr 0.00 in0.0 mm
06:31 PM 29.7°F-1.3°C 13.8°F-10.1°C 51% 3.0 mph NW4.8 kmh NW 12.0 mph19.3 kmh 30.06 in1017.9 mb 0.00 in0.0 mm 0.00 in/hr0.0 mm/hr 0.00 in0.0 mm
06:47 PM 29.2°F-1.6°C 14.6°F-9.7°C 54% 2.0 mph WSW3.2 kmh WSW 5.0 mph8.0 kmh 30.06 in1017.9 mb 0.00 in0.0 mm 0.00 in/hr0.0 mm/hr 0.00 in0.0 mm
07:02 PM 28.6°F-1.9°C 15.3°F-9.3°C 57% 6.0 mph W9.7 kmh W 10.0 mph16.1 kmh 30.06 in1017.9 mb 0.00 in0.0 mm 0.00 in/hr0.0 mm/hr 0.00 in0.0 mm
07:16 PM 28.2°F-2.1°C 14.5°F-9.7°C 56% 5.0 mph WSW8.0 kmh WSW 10.0 mph16.1 kmh 30.07 in1018.3 mb 0.00 in0.0 mm 0.00 in/hr0.0 mm/hr 0.00 in0.0 mm
07:31 PM 28.0°F-2.2°C 14.3°F-9.8°C 56% 4.0 mph WNW6.4 kmh WNW 10.0 mph16.1 kmh 30.07 in1018.3 mb 0.00 in0.0 mm 0.00 in/hr0.0 mm/hr 0.00 in0.0 mm
07:46 PM 27.8°F-2.3°C 14.2°F-9.9°C 56% 9.0 mph WSW14.5 kmh WSW 9.0 mph14.5 kmh 30.07 in1018.3 mb 0.00 in0.0 mm 0.00 in/hr0.0 mm/hr 0.00 in0.0 mm
08:02 PM 27.5°F-2.5°C 13.9°F-10.1°C 56% 3.0 mph W4.8 kmh W 8.0 mph12.9 kmh 30.07 in1018.3 mb 0.00 in0.0 mm 0.00 in/hr0.0 mm/hr 0.00 in0.0 mm
08:16 PM 27.1°F-2.7°C 13.9°F-10.1°C 57% 4.0 mph WNW6.4 kmh WNW 10.0 mph16.1 kmh 30.07 in1018.3 mb 0.00 in0.0 mm 0.00 in/hr0.0 mm/hr 0.00 in0.0 mm
08:31 PM 26.7°F-2.9°C 14.3°F-9.8°C 59% 9.0 mph NW14.5 kmh NW 11.0 mph17.7 kmh 30.07 in1018.3 mb 0.00 in0.0 mm 0.00 in/hr0.0 mm/hr 0.00 in0.0 mm
08:47 PM 26.4°F-3.1°C 14.4°F-9.8°C 60% 5.0 mph WNW8.0 kmh WNW 11.0 mph17.7 kmh 30.06 in1017.9 mb 0.00 in0.0 mm 0.00 in/hr0.0 mm/hr 0.00 in0.0 mm
09:02 PM 26.1°F-3.3°C 14.1°F-9.9°C 60% 8.0 mph W12.9 kmh W 13.0 mph20.9 kmh 30.06 in1017.9 mb 0.00 in0.0 mm 0.00 in/hr0.0 mm/hr 0.00 in0.0 mm
09:16 PM 26.0°F-3.3°C 14.8°F-9.6°C 62% 7.0 mph WSW11.3 kmh WSW 13.0 mph20.9 kmh 30.06 in1017.9 mb 0.00 in0.0 mm 0.00 in/hr0.0 mm/hr 0.00 in0.0 mm
09:31 PM 25.8°F-3.4°C 14.6°F-9.7°C 62% 5.0 mph W8.0 kmh W 10.0 mph16.1 kmh 30.06 in1017.9 mb 0.00 in0.0 mm 0.00 in/hr0.0 mm/hr 0.00 in0.0 mm
09:46 PM 25.7°F-3.5°C 14.1°F-9.9°C 61% 5.0 mph WNW8.0 kmh WNW 10.0 mph16.1 kmh 30.06 in1017.9 mb 0.00 in0.0 mm 0.00 in/hr0.0 mm/hr 0.00 in0.0 mm
10:01 PM 25.5°F-3.6°C 13.9°F-10.1°C 61% 9.0 mph WSW14.5 kmh WSW 12.0 mph19.3 kmh 30.06 in1017.9 mb 0.00 in0.0 mm 0.00 in/hr0.0 mm/hr 0.00 in0.0 mm
10:16 PM 25.5°F-3.6°C 14.3°F-9.8°C 62% 10.0 mph W16.1 kmh W 12.0 mph19.3 kmh 30.05 in1017.6 mb 0.00 in0.0 mm 0.00 in/hr0.0 mm/hr 0.00 in0.0 mm
10:31 PM 25.3°F-3.7°C 14.5°F-9.7°C 63% 5.0 mph W8.0 kmh W 12.0 mph19.3 kmh 30.05 in1017.6 mb 0.00 in0.0 mm 0.00 in/hr0.0 mm/hr 0.00 in0.0 mm
10:46 PM 25.1°F-3.8°C 14.7°F-9.6°C 64% 6.0 mph WNW9.7 kmh WNW 11.0 mph17.7 kmh 30.04 in1017.3 mb 0.00 in0.0 mm 0.00 in/hr0.0 mm/hr 0.00 in0.0 mm
11:02 PM 25.0°F-3.9°C 14.6°F-9.7°C 64% 8.0 mph WSW12.9 kmh WSW 12.0 mph19.3 kmh 30.05 in1017.6 mb 0.00 in0.0 mm 0.00 in/hr0.0 mm/hr 0.00 in0.0 mm
11:15 PM 24.7°F-4.1°C 14.6°F-9.7°C 65% 8.0 mph WSW12.9 kmh WSW 11.0 mph17.7 kmh 30.04 in1017.3 mb 0.00 in0.0 mm 0.00 in/hr0.0 mm/hr 0.00 in0.0 mm
11:31 PM 24.4°F-4.2°C 14.7°F-9.6°C 66% 5.0 mph WSW8.0 kmh WSW 9.0 mph14.5 kmh 30.04 in1017.3 mb 0.00 in0.0 mm 0.00 in/hr0.0 mm/hr 0.00 in0.0 mm
11:46 PM 24.3°F-4.3°C 14.9°F-9.5°C 67% 4.0 mph W6.4 kmh W 9.0 mph14.5 kmh 30.05 in1017.6 mb 0.00 in0.0 mm 0.00 in/hr0.0 mm/hr 0.00 in0.0 mm